sensor_id;sensor_type;location;lat;lon;timestamp;temperature;humidity
44863;DHT22;30597;49.628;10.850;2023-02-24T00:02:23;20.90;52.60
44863;DHT22;30597;49.628;10.850;2023-02-24T00:04:49;20.90;52.70
44863;DHT22;30597;49.628;10.850;2023-02-24T00:07:16;20.90;52.80
44863;DHT22;30597;49.628;10.850;2023-02-24T00:09:42;20.90;52.90
44863;DHT22;30597;49.628;10.850;2023-02-24T00:12:12;20.90;53.10
44863;DHT22;30597;49.628;10.850;2023-02-24T00:14:40;20.90;53.00
44863;DHT22;30597;49.628;10.850;2023-02-24T00:17:07;20.90;52.90
44863;DHT22;30597;49.628;10.850;2023-02-24T00:19:33;20.90;52.90
44863;DHT22;30597;49.628;10.850;2023-02-24T00:22:00;20.80;52.80
44863;DHT22;30597;49.628;10.850;2023-02-24T00:24:26;20.80;53.00
44863;DHT22;30597;49.628;10.850;2023-02-24T00:26:54;20.70;53.00
44863;DHT22;30597;49.628;10.850;2023-02-24T00:29:20;20.70;53.10
44863;DHT22;30597;49.628;10.850;2023-02-24T00:31:49;20.70;53.20
44863;DHT22;30597;49.628;10.850;2023-02-24T00:34:21;20.60;53.20
44863;DHT22;30597;49.628;10.850;2023-02-24T00:36:47;20.60;53.20
44863;DHT22;30597;49.628;10.850;2023-02-24T00:39:13;20.60;53.20
44863;DHT22;30597;49.628;10.850;2023-02-24T00:41:41;20.60;53.20
44863;DHT22;30597;49.628;10.850;2023-02-24T00:44:10;20.60;53.30
44863;DHT22;30597;49.628;10.850;2023-02-24T00:46:47;20.60;53.30
44863;DHT22;30597;49.628;10.850;2023-02-24T00:49:17;20.50;53.30
44863;DHT22;30597;49.628;10.850;2023-02-24T00:51:45;20.50;53.30
44863;DHT22;30597;49.628;10.850;2023-02-24T00:54:11;20.50;53.40
44863;DHT22;30597;49.628;10.850;2023-02-24T00:56:40;20.50;53.40
44863;DHT22;30597;49.628;10.850;2023-02-24T00:59:08;20.50;53.50
44863;DHT22;30597;49.628;10.850;2023-02-24T01:01:34;20.40;53.50
44863;DHT22;30597;49.628;10.850;2023-02-24T01:04:01;20.40;53.50
44863;DHT22;30597;49.628;10.850;2023-02-24T01:06:36;20.40;53.50
44863;DHT22;30597;49.628;10.850;2023-02-24T01:09:02;20.40;54.20
44863;DHT22;30597;49.628;10.850;2023-02-24T01:11:34;20.40;53.50
44863;DHT22;30597;49.628;10.850;2023-02-24T01:14:21;20.40;53.70
44863;DHT22;30597;49.628;10.850;2023-02-24T01:16:47;20.30;53.60
44863;DHT22;30597;49.628;10.850;2023-02-24T01:19:17;20.30;53.60
44863;DHT22;30597;49.628;10.850;2023-02-24T01:21:43;20.30;53.50
44863;DHT22;30597;49.628;10.850;2023-02-24T01:24:10;20.30;53.60
44863;DHT22;30597;49.628;10.850;2023-02-24T01:26:36;20.30;53.70
44863;DHT22;30597;49.628;10.850;2023-02-24T01:29:02;20.30;53.60
44863;DHT22;30597;49.628;10.850;2023-02-24T01:31:35;20.30;53.60
44863;DHT22;30597;49.628;10.850;2023-02-24T01:34:00;20.30;53.80
44863;DHT22;30597;49.628;10.850;2023-02-24T01:36:31;20.20;53.80
44863;DHT22;30597;49.628;10.850;2023-02-24T01:38:58;20.20;53.70
44863;DHT22;30597;49.628;10.850;2023-02-24T01:41:25;20.20;53.70
44863;DHT22;30597;49.628;10.850;2023-02-24T01:46:38;20.20;53.80
44863;DHT22;30597;49.628;10.850;2023-02-24T01:49:11;20.20;53.90
44863;DHT22;30597;49.628;10.850;2023-02-24T01:51:41;20.20;53.80
44863;DHT22;30597;49.628;10.850;2023-02-24T01:54:12;20.20;54.00
44863;DHT22;30597;49.628;10.850;2023-02-24T01:56:39;20.20;54.00
44863;DHT22;30597;49.628;10.850;2023-02-24T01:59:08;20.20;54.00
44863;DHT22;30597;49.628;10.850;2023-02-24T02:01:35;20.20;54.60
44863;DHT22;30597;49.628;10.850;2023-02-24T02:04:15;20.10;54.00
44863;DHT22;30597;49.628;10.850;2023-02-24T02:06:44;20.10;53.90
44863;DHT22;30597;49.628;10.850;2023-02-24T02:09:11;20.10;54.00
44863;DHT22;30597;49.628;10.850;2023-02-24T02:11:42;20.10;54.00
44863;DHT22;30597;49.628;10.850;2023-02-24T02:14:17;20.10;54.00
44863;DHT22;30597;49.628;10.850;2023-02-24T02:28:13;20.10;54.30
44863;DHT22;30597;49.628;10.850;2023-02-24T02:31:22;20.10;54.30
44863;DHT22;30597;49.628;10.850;2023-02-24T02:36:49;20.00;54.30
44863;DHT22;30597;49.628;10.850;2023-02-24T02:39:32;20.00;54.30
44863;DHT22;30597;49.628;10.850;2023-02-24T02:44:39;20.00;54.30
44863;DHT22;30597;49.628;10.850;2023-02-24T02:47:21;20.00;54.30
44863;DHT22;30597;49.628;10.850;2023-02-24T02:49:53;20.00;54.30
44863;DHT22;30597;49.628;10.850;2023-02-24T02:52:42;20.00;54.40
44863;DHT22;30597;49.628;10.850;2023-02-24T02:55:14;20.00;54.40
44863;DHT22;30597;49.628;10.850;2023-02-24T02:57:46;20.00;54.40
44863;DHT22;30597;49.628;10.850;2023-02-24T03:00:17;20.00;54.40
44863;DHT22;30597;49.628;10.850;2023-02-24T03:02:57;20.00;54.40
44863;DHT22;30597;49.628;10.850;2023-02-24T03:05:30;20.00;54.50
44863;DHT22;30597;49.628;10.850;2023-02-24T03:07:59;20.00;54.60
44863;DHT22;30597;49.628;10.850;2023-02-24T03:10:28;20.00;54.50
44863;DHT22;30597;49.628;10.850;2023-02-24T03:12:57;19.90;54.40
44863;DHT22;30597;49.628;10.850;2023-02-24T03:15:25;19.90;54.50
44863;DHT22;30597;49.628;10.850;2023-02-24T03:17:58;19.90;54.60
44863;DHT22;30597;49.628;10.850;2023-02-24T03:20:40;19.90;54.50
44863;DHT22;30597;49.628;10.850;2023-02-24T03:23:21;19.90;54.60
44863;DHT22;30597;49.628;10.850;2023-02-24T03:25:57;19.90;54.60
44863;DHT22;30597;49.628;10.850;2023-02-24T03:28:32;19.90;54.60
44863;DHT22;30597;49.628;10.850;2023-02-24T03:31:15;19.90;54.70
44863;DHT22;30597;49.628;10.850;2023-02-24T03:34:13;19.90;54.70
44863;DHT22;30597;49.628;10.850;2023-02-24T03:36:42;19.90;54.70
44863;DHT22;30597;49.628;10.850;2023-02-24T03:39:08;19.90;54.70
44863;DHT22;30597;49.628;10.850;2023-02-24T03:44:21;19.80;54.70
44863;DHT22;30597;49.628;10.850;2023-02-24T03:46:47;19.80;54.70
44863;DHT22;30597;49.628;10.850;2023-02-24T03:49:13;19.80;54.80
44863;DHT22;30597;49.628;10.850;2023-02-24T03:58:17;19.80;54.60
44863;DHT22;30597;49.628;10.850;2023-02-24T04:00:59;19.80;54.80
44863;DHT22;30597;49.628;10.850;2023-02-24T04:08:59;19.80;54.80
44863;DHT22;30597;49.628;10.850;2023-02-24T04:11:34;19.80;54.80
44863;DHT22;30597;49.628;10.850;2023-02-24T04:14:03;19.80;54.90
44863;DHT22;30597;49.628;10.850;2023-02-24T04:16:37;19.80;54.90
44863;DHT22;30597;49.628;10.850;2023-02-24T04:19:09;19.80;54.90
44863;DHT22;30597;49.628;10.850;2023-02-24T04:21:39;19.80;55.00
44863;DHT22;30597;49.628;10.850;2023-02-24T04:24:08;19.80;55.10
44863;DHT22;30597;49.628;10.850;2023-02-24T04:26:44;19.80;55.00
44863;DHT22;30597;49.628;10.850;2023-02-24T04:29:14;19.80;55.00
44863;DHT22;30597;49.628;10.850;2023-02-24T04:32:04;19.80;55.10
44863;DHT22;30597;49.628;10.850;2023-02-24T04:34:31;19.80;55.10
44863;DHT22;30597;49.628;10.850;2023-02-24T04:36:57;19.80;55.10
44863;DHT22;30597;49.628;10.850;2023-02-24T04:39:24;19.80;55.00
44863;DHT22;30597;49.628;10.850;2023-02-24T04:41:50;19.80;55.20
44863;DHT22;30597;49.628;10.850;2023-02-24T04:44:17;19.80;55.00
44863;DHT22;30597;49.628;10.850;2023-02-24T04:46:44;19.80;55.20
44863;DHT22;30597;49.628;10.850;2023-02-24T04:49:10;19.80;55.10
44863;DHT22;30597;49.628;10.850;2023-02-24T04:51:37;19.80;55.10
44863;DHT22;30597;49.628;10.850;2023-02-24T04:54:16;19.80;55.20
44863;DHT22;30597;49.628;10.850;2023-02-24T04:56:43;19.80;55.20
44863;DHT22;30597;49.628;10.850;2023-02-24T04:59:10;19.70;55.10
44863;DHT22;30597;49.628;10.850;2023-02-24T05:01:36;19.80;55.20
44863;DHT22;30597;49.628;10.850;2023-02-24T05:04:06;19.70;55.10
44863;DHT22;30597;49.628;10.850;2023-02-24T05:06:32;19.70;55.10
44863;DHT22;30597;49.628;10.850;2023-02-24T05:08:58;19.80;55.20
44863;DHT22;30597;49.628;10.850;2023-02-24T05:11:26;19.70;55.10
44863;DHT22;30597;49.628;10.850;2023-02-24T05:13:59;19.70;55.10
44863;DHT22;30597;49.628;10.850;2023-02-24T05:16:24;19.70;55.30
44863;DHT22;30597;49.628;10.850;2023-02-24T05:18:53;19.70;55.20
44863;DHT22;30597;49.628;10.850;2023-02-24T05:21:38;19.70;55.30
44863;DHT22;30597;49.628;10.850;2023-02-24T05:24:06;19.70;55.30
44863;DHT22;30597;49.628;10.850;2023-02-24T05:26:34;19.70;55.30
44863;DHT22;30597;49.628;10.850;2023-02-24T05:29:01;19.70;55.40
44863;DHT22;30597;49.628;10.850;2023-02-24T05:31:29;19.60;55.30
44863;DHT22;30597;49.628;10.850;2023-02-24T05:34:06;19.60;55.30
44863;DHT22;30597;49.628;10.850;2023-02-24T05:36:36;19.60;56.00
44863;DHT22;30597;49.628;10.850;2023-02-24T05:39:03;19.60;55.30
44863;DHT22;30597;49.628;10.850;2023-02-24T05:41:34;19.60;55.30
44863;DHT22;30597;49.628;10.850;2023-02-24T05:44:02;19.60;55.40
44863;DHT22;30597;49.628;10.850;2023-02-24T05:46:31;19.60;55.40
44863;DHT22;30597;49.628;10.850;2023-02-24T05:48:59;19.60;55.50
44863;DHT22;30597;49.628;10.850;2023-02-24T05:51:30;19.70;55.50
44863;DHT22;30597;49.628;10.850;2023-02-24T05:54:08;19.70;55.50
44863;DHT22;30597;49.628;10.850;2023-02-24T05:56:35;19.60;55.40
44863;DHT22;30597;49.628;10.850;2023-02-24T05:59:03;19.60;55.50
44863;DHT22;30597;49.628;10.850;2023-02-24T06:01:37;19.70;55.60
44863;DHT22;30597;49.628;10.850;2023-02-24T06:04:06;19.60;55.50
44863;DHT22;30597;49.628;10.850;2023-02-24T06:06:36;19.60;55.60
44863;DHT22;30597;49.628;10.850;2023-02-24T06:09:04;19.60;55.50
44863;DHT22;30597;49.628;10.850;2023-02-24T06:11:35;19.60;55.60
44863;DHT22;30597;49.628;10.850;2023-02-24T06:14:02;19.60;55.60
44863;DHT22;30597;49.628;10.850;2023-02-24T06:16:32;19.60;55.60
44863;DHT22;30597;49.628;10.850;2023-02-24T06:18:57;19.70;55.60
44863;DHT22;30597;49.628;10.850;2023-02-24T06:21:23;19.70;55.60
44863;DHT22;30597;49.628;10.850;2023-02-24T06:23:50;19.70;55.60
44863;DHT22;30597;49.628;10.850;2023-02-24T06:26:15;19.70;55.60
44863;DHT22;30597;49.628;10.850;2023-02-24T06:28:44;19.70;55.60
44863;DHT22;30597;49.628;10.850;2023-02-24T06:31:11;19.70;56.40
44863;DHT22;30597;49.628;10.850;2023-02-24T06:33:39;19.70;55.70
44863;DHT22;30597;49.628;10.850;2023-02-24T06:36:05;19.70;55.50
44863;DHT22;30597;49.628;10.850;2023-02-24T06:38:33;19.70;55.50
44863;DHT22;30597;49.628;10.850;2023-02-24T06:41:00;19.60;55.30
44863;DHT22;30597;49.628;10.850;2023-02-24T06:43:36;19.60;55.20
44863;DHT22;30597;49.628;10.850;2023-02-24T06:46:03;19.70;55.40
44863;DHT22;30597;49.628;10.850;2023-02-24T06:48:30;19.70;55.40
44863;DHT22;30597;49.628;10.850;2023-02-24T06:51:08;19.70;55.30
44863;DHT22;30597;49.628;10.850;2023-02-24T06:53:35;19.80;55.40
44863;DHT22;30597;49.628;10.850;2023-02-24T06:56:10;19.80;55.40
44863;DHT22;30597;49.628;10.850;2023-02-24T06:58:41;19.80;55.30
44863;DHT22;30597;49.628;10.850;2023-02-24T07:01:16;19.80;55.10
44863;DHT22;30597;49.628;10.850;2023-02-24T07:03:44;19.80;54.90
44863;DHT22;30597;49.628;10.850;2023-02-24T07:06:24;19.80;54.80
44863;DHT22;30597;49.628;10.850;2023-02-24T07:08:51;19.80;54.90
44863;DHT22;30597;49.628;10.850;2023-02-24T07:11:18;19.90;54.80
44863;DHT22;30597;49.628;10.850;2023-02-24T07:13:45;20.00;54.60
44863;DHT22;30597;49.628;10.850;2023-02-24T07:16:18;20.20;54.50
44863;DHT22;30597;49.628;10.850;2023-02-24T07:18:44;20.30;54.20
44863;DHT22;30597;49.628;10.850;2023-02-24T07:21:15;20.30;54.00
44863;DHT22;30597;49.628;10.850;2023-02-24T07:23:43;20.40;53.60
44863;DHT22;30597;49.628;10.850;2023-02-24T07:26:11;20.40;53.40
44863;DHT22;30597;49.628;10.850;2023-02-24T07:28:39;20.50;53.30
44863;DHT22;30597;49.628;10.850;2023-02-24T07:31:09;20.50;53.10
44863;DHT22;30597;49.628;10.850;2023-02-24T07:33:39;20.60;53.00
44863;DHT22;30597;49.628;10.850;2023-02-24T07:36:06;20.60;52.90
44863;DHT22;30597;49.628;10.850;2023-02-24T07:38:38;20.70;52.80
44863;DHT22;30597;49.628;10.850;2023-02-24T07:41:04;20.70;52.70
44863;DHT22;30597;49.628;10.850;2023-02-24T07:43:32;20.70;52.60
44863;DHT22;30597;49.628;10.850;2023-02-24T07:46:07;20.80;52.50
44863;DHT22;30597;49.628;10.850;2023-02-24T07:48:34;20.80;52.40
44863;DHT22;30597;49.628;10.850;2023-02-24T07:51:10;20.90;52.40
44863;DHT22;30597;49.628;10.850;2023-02-24T07:53:37;20.90;52.30
44863;DHT22;30597;49.628;10.850;2023-02-24T07:56:14;20.90;52.10
44863;DHT22;30597;49.628;10.850;2023-02-24T07:58:43;21.00;52.10
44863;DHT22;30597;49.628;10.850;2023-02-24T08:01:09;21.00;52.00
44863;DHT22;30597;49.628;10.850;2023-02-24T08:03:44;21.00;51.90
44863;DHT22;30597;49.628;10.850;2023-02-24T08:06:09;21.00;51.70
44863;DHT22;30597;49.628;10.850;2023-02-24T08:08:43;21.10;51.80
44863;DHT22;30597;49.628;10.850;2023-02-24T08:11:26;21.10;51.70
44863;DHT22;30597;49.628;10.850;2023-02-24T08:13:52;21.10;51.60
44863;DHT22;30597;49.628;10.850;2023-02-24T08:16:18;21.10;51.50
44863;DHT22;30597;49.628;10.850;2023-02-24T08:18:44;21.20;51.50
44863;DHT22;30597;49.628;10.850;2023-02-24T08:21:16;21.20;51.40
44863;DHT22;30597;49.628;10.850;2023-02-24T08:23:45;21.20;51.30
44863;DHT22;30597;49.628;10.850;2023-02-24T08:26:11;21.20;51.30
44863;DHT22;30597;49.628;10.850;2023-02-24T08:28:39;21.30;51.20
44863;DHT22;30597;49.628;10.850;2023-02-24T08:31:05;21.30;51.20
44863;DHT22;30597;49.628;10.850;2023-02-24T08:33:31;21.30;51.20
44863;DHT22;30597;49.628;10.850;2023-02-24T08:35:57;21.30;51.20
44863;DHT22;30597;49.628;10.850;2023-02-24T08:38:26;21.30;51.20
44863;DHT22;30597;49.628;10.850;2023-02-24T08:41:04;21.30;51.10
44863;DHT22;30597;49.628;10.850;2023-02-24T08:43:37;21.30;51.10
44863;DHT22;30597;49.628;10.850;2023-02-24T08:48:40;21.30;51.10
44863;DHT22;30597;49.628;10.850;2023-02-24T08:51:21;21.30;51.70
44863;DHT22;30597;49.628;10.850;2023-02-24T08:53:52;21.30;51.10
44863;DHT22;30597;49.628;10.850;2023-02-24T08:56:20;21.20;51.10
44863;DHT22;30597;49.628;10.850;2023-02-24T08:58:53;21.20;51.10
44863;DHT22;30597;49.628;10.850;2023-02-24T09:01:24;21.20;51.20
44863;DHT22;30597;49.628;10.850;2023-02-24T09:03:54;21.10;51.20
44863;DHT22;30597;49.628;10.850;2023-02-24T09:06:24;21.10;51.20
44863;DHT22;30597;49.628;10.850;2023-02-24T09:08:52;21.10;51.20
44863;DHT22;30597;49.628;10.850;2023-02-24T09:11:39;21.00;51.10
44863;DHT22;30597;49.628;10.850;2023-02-24T09:14:09;21.00;51.20
44863;DHT22;30597;49.628;10.850;2023-02-24T09:16:45;21.00;51.30
44863;DHT22;30597;49.628;10.850;2023-02-24T09:19:46;20.90;51.30
44863;DHT22;30597;49.628;10.850;2023-02-24T09:22:13;20.90;51.30
44863;DHT22;30597;49.628;10.850;2023-02-24T09:24:40;20.80;51.40
44863;DHT22;30597;49.628;10.850;2023-02-24T09:27:06;20.70;51.50
44863;DHT22;30597;49.628;10.850;2023-02-24T09:29:31;20.70;51.50
44863;DHT22;30597;49.628;10.850;2023-02-24T09:32:04;20.60;51.50
44863;DHT22;30597;49.628;10.850;2023-02-24T09:34:35;20.60;51.60
44863;DHT22;30597;49.628;10.850;2023-02-24T09:37:03;20.60;51.60
44863;DHT22;30597;49.628;10.850;2023-02-24T09:39:30;20.70;51.60
44863;DHT22;30597;49.628;10.850;2023-02-24T09:42:19;20.80;51.50
44863;DHT22;30597;49.628;10.850;2023-02-24T09:44:47;20.90;51.30
44863;DHT22;30597;49.628;10.850;2023-02-24T09:49:59;21.10;50.90
44863;DHT22;30597;49.628;10.850;2023-02-24T09:52:30;21.20;50.80
44863;DHT22;30597;49.628;10.850;2023-02-24T09:58:05;21.30;50.50
44863;DHT22;30597;49.628;10.850;2023-02-24T10:00:52;21.40;50.50
44863;DHT22;30597;49.628;10.850;2023-02-24T10:03:24;21.40;50.40
44863;DHT22;30597;49.628;10.850;2023-02-24T10:06:18;21.40;50.30
44863;DHT22;30597;49.628;10.850;2023-02-24T10:09:02;21.50;50.30
44863;DHT22;30597;49.628;10.850;2023-02-24T10:11:47;21.50;50.20
44863;DHT22;30597;49.628;10.850;2023-02-24T10:14:28;21.50;50.10
44863;DHT22;30597;49.628;10.850;2023-02-24T10:16:56;21.50;50.10
44863;DHT22;30597;49.628;10.850;2023-02-24T10:19:40;21.50;50.00
44863;DHT22;30597;49.628;10.850;2023-02-24T10:25:46;21.50;50.00
44863;DHT22;30597;49.628;10.850;2023-02-24T10:28:28;21.40;49.90
44863;DHT22;30597;49.628;10.850;2023-02-24T10:31:13;21.40;50.00
44863;DHT22;30597;49.628;10.850;2023-02-24T10:34:00;21.30;50.00
44863;DHT22;30597;49.628;10.850;2023-02-24T10:36:30;21.30;50.10
44863;DHT22;30597;49.628;10.850;2023-02-24T10:41:48;21.20;50.10
44863;DHT22;30597;49.628;10.850;2023-02-24T10:44:30;21.20;50.10
44863;DHT22;30597;49.628;10.850;2023-02-24T10:47:11;21.20;50.10
44863;DHT22;30597;49.628;10.850;2023-02-24T10:49:41;21.20;50.20
44863;DHT22;30597;49.628;10.850;2023-02-24T10:52:12;21.10;50.20
44863;DHT22;30597;49.628;10.850;2023-02-24T10:54:58;21.10;50.30
44863;DHT22;30597;49.628;10.850;2023-02-24T10:57:43;21.00;50.30
44863;DHT22;30597;49.628;10.850;2023-02-24T11:00:19;20.90;50.40
44863;DHT22;30597;49.628;10.850;2023-02-24T11:02:55;20.90;50.50
44863;DHT22;30597;49.628;10.850;2023-02-24T11:05:41;20.90;51.10
44863;DHT22;30597;49.628;10.850;2023-02-24T11:08:26;20.80;50.50
44863;DHT22;30597;49.628;10.850;2023-02-24T11:11:24;20.80;50.60
44863;DHT22;30597;49.628;10.850;2023-02-24T11:14:01;20.80;50.60
44863;DHT22;30597;49.628;10.850;2023-02-24T11:16:51;21.00;50.50
44863;DHT22;30597;49.628;10.850;2023-02-24T11:19:58;21.00;50.30
44863;DHT22;30597;49.628;10.850;2023-02-24T11:22:31;21.10;50.10
44863;DHT22;30597;49.628;10.850;2023-02-24T11:25:07;21.20;50.00
44863;DHT22;30597;49.628;10.850;2023-02-24T11:27:40;21.30;49.90
44863;DHT22;30597;49.628;10.850;2023-02-24T11:35:50;21.50;49.70
44863;DHT22;30597;49.628;10.850;2023-02-24T11:38:43;21.50;50.20
44863;DHT22;30597;49.628;10.850;2023-02-24T11:41:18;21.50;49.50
44863;DHT22;30597;49.628;10.850;2023-02-24T11:43:55;21.60;49.60
44863;DHT22;30597;49.628;10.850;2023-02-24T11:46:28;21.60;49.60
44863;DHT22;30597;49.628;10.850;2023-02-24T11:48:58;21.70;50.00
44863;DHT22;30597;49.628;10.850;2023-02-24T11:51:32;21.70;49.60
44863;DHT22;30597;49.628;10.850;2023-02-24T11:54:03;21.70;49.50
44863;DHT22;30597;49.628;10.850;2023-02-24T11:56:33;21.70;49.60
44863;DHT22;30597;49.628;10.850;2023-02-24T12:04:21;21.70;49.60
44863;DHT22;30597;49.628;10.850;2023-02-24T12:09:37;21.70;49.60
44863;DHT22;30597;49.628;10.850;2023-02-24T12:12:15;21.60;49.60
44863;DHT22;30597;49.628;10.850;2023-02-24T12:14:50;21.50;49.70
44863;DHT22;30597;49.628;10.850;2023-02-24T12:19:58;21.40;49.70
44863;DHT22;30597;49.628;10.850;2023-02-24T12:22:30;21.40;49.80
44863;DHT22;30597;49.628;10.850;2023-02-24T12:24:56;21.30;49.70
44863;DHT22;30597;49.628;10.850;2023-02-24T12:27:45;21.20;49.40
44863;DHT22;30597;49.628;10.850;2023-02-24T12:30:38;21.10;49.40
44863;DHT22;30597;49.628;10.850;2023-02-24T12:44:07;20.90;50.40
44863;DHT22;30597;49.628;10.850;2023-02-24T12:46:40;20.80;50.30
44863;DHT22;30597;49.628;10.850;2023-02-24T13:00:31;20.80;50.60
44863;DHT22;30597;49.628;10.850;2023-02-24T13:06:23;21.10;50.20
44863;DHT22;30597;49.628;10.850;2023-02-24T13:11:48;21.30;49.80
44863;DHT22;30597;49.628;10.850;2023-02-24T13:16:45;21.40;49.50
44863;DHT22;30597;49.628;10.850;2023-02-24T13:24:22;21.50;49.20
44863;DHT22;30597;49.628;10.850;2023-02-24T13:26:48;21.60;49.10
44863;DHT22;30597;49.628;10.850;2023-02-24T13:29:14;21.60;49.10
44863;DHT22;30597;49.628;10.850;2023-02-24T13:31:44;21.70;49.10
44863;DHT22;30597;49.628;10.850;2023-02-24T13:34:27;21.70;49.00
44863;DHT22;30597;49.628;10.850;2023-02-24T13:36:53;21.70;49.00
44863;DHT22;30597;49.628;10.850;2023-02-24T13:42:19;21.70;48.80
44863;DHT22;30597;49.628;10.850;2023-02-24T13:47:42;21.60;49.00
44863;DHT22;30597;49.628;10.850;2023-02-24T13:50:20;21.60;49.00
44863;DHT22;30597;49.628;10.850;2023-02-24T13:52:56;21.50;49.10
44863;DHT22;30597;49.628;10.850;2023-02-24T14:01:07;21.40;49.10
44863;DHT22;30597;49.628;10.850;2023-02-24T14:03:34;21.40;49.10
44863;DHT22;30597;49.628;10.850;2023-02-24T14:06:01;21.30;49.20
44863;DHT22;30597;49.628;10.850;2023-02-24T14:08:46;21.30;49.20
44863;DHT22;30597;49.628;10.850;2023-02-24T14:11:15;21.30;49.20
44863;DHT22;30597;49.628;10.850;2023-02-24T14:13:48;21.30;49.30
44863;DHT22;30597;49.628;10.850;2023-02-24T14:16:19;21.20;49.30
44863;DHT22;30597;49.628;10.850;2023-02-24T14:18:59;21.10;49.50
44863;DHT22;30597;49.628;10.850;2023-02-24T14:21:32;21.00;49.20
44863;DHT22;30597;49.628;10.850;2023-02-24T14:24:08;21.00;49.70
44863;DHT22;30597;49.628;10.850;2023-02-24T14:26:42;20.90;50.10
44863;DHT22;30597;49.628;10.850;2023-02-24T14:29:12;20.80;49.70
44863;DHT22;30597;49.628;10.850;2023-02-24T14:31:38;20.80;49.80
44863;DHT22;30597;49.628;10.850;2023-02-24T14:34:05;20.80;49.90
44863;DHT22;30597;49.628;10.850;2023-02-24T14:36:41;20.80;49.80
44863;DHT22;30597;49.628;10.850;2023-02-24T14:41:41;20.90;49.90
44863;DHT22;30597;49.628;10.850;2023-02-24T14:44:17;21.10;49.70
44863;DHT22;30597;49.628;10.850;2023-02-24T14:46:51;21.20;49.70
44863;DHT22;30597;49.628;10.850;2023-02-24T14:49:25;21.20;49.40
44863;DHT22;30597;49.628;10.850;2023-02-24T14:52:13;21.30;49.20
44863;DHT22;30597;49.628;10.850;2023-02-24T14:54:54;21.30;49.10
44863;DHT22;30597;49.628;10.850;2023-02-24T14:57:25;21.40;49.20
44863;DHT22;30597;49.628;10.850;2023-02-24T14:59:59;21.40;48.70
44863;DHT22;30597;49.628;10.850;2023-02-24T15:02:31;21.40;48.90
44863;DHT22;30597;49.628;10.850;2023-02-24T15:04:58;21.50;48.90
44863;DHT22;30597;49.628;10.850;2023-02-24T15:07:32;21.50;48.90
44863;DHT22;30597;49.628;10.850;2023-02-24T15:09:59;21.50;48.30
44863;DHT22;30597;49.628;10.850;2023-02-24T15:12:33;21.60;48.80
44863;DHT22;30597;49.628;10.850;2023-02-24T15:15:12;21.60;48.70
44863;DHT22;30597;49.628;10.850;2023-02-24T15:17:42;21.50;48.60
44863;DHT22;30597;49.628;10.850;2023-02-24T15:20:46;21.60;48.70
44863;DHT22;30597;49.628;10.850;2023-02-24T15:23:28;21.60;48.60
44863;DHT22;30597;49.628;10.850;2023-02-24T15:25:54;21.50;48.60
44863;DHT22;30597;49.628;10.850;2023-02-24T15:28:26;21.50;48.60
44863;DHT22;30597;49.628;10.850;2023-02-24T15:31:05;21.50;48.80
44863;DHT22;30597;49.628;10.850;2023-02-24T15:33:38;21.40;48.40
44863;DHT22;30597;49.628;10.850;2023-02-24T15:36:08;21.30;48.30
44863;DHT22;30597;49.628;10.850;2023-02-24T15:38:37;21.30;48.60
44863;DHT22;30597;49.628;10.850;2023-02-24T15:41:05;21.20;48.20
44863;DHT22;30597;49.628;10.850;2023-02-24T15:46:33;21.20;48.50
44863;DHT22;30597;49.628;10.850;2023-02-24T15:49:00;21.10;48.30
44863;DHT22;30597;49.628;10.850;2023-02-24T15:51:40;21.00;48.30
44863;DHT22;30597;49.628;10.850;2023-02-24T15:54:18;21.00;48.20
44863;DHT22;30597;49.628;10.850;2023-02-24T15:56:45;21.00;48.90
44863;DHT22;30597;49.628;10.850;2023-02-24T15:59:14;20.90;48.50
44863;DHT22;30597;49.628;10.850;2023-02-24T16:01:40;20.90;48.90
44863;DHT22;30597;49.628;10.850;2023-02-24T16:04:05;20.80;49.20
44863;DHT22;30597;49.628;10.850;2023-02-24T16:06:34;20.80;49.00
44863;DHT22;30597;49.628;10.850;2023-02-24T16:09:11;20.70;49.00
44863;DHT22;30597;49.628;10.850;2023-02-24T16:11:38;20.60;49.00
44863;DHT22;30597;49.628;10.850;2023-02-24T16:14:05;20.60;49.00
44863;DHT22;30597;49.628;10.850;2023-02-24T16:16:33;20.60;49.30
44863;DHT22;30597;49.628;10.850;2023-02-24T16:18:59;20.50;49.40
44863;DHT22;30597;49.628;10.850;2023-02-24T16:21:25;20.50;48.90
44863;DHT22;30597;49.628;10.850;2023-02-24T16:23:50;20.50;49.20
44863;DHT22;30597;49.628;10.850;2023-02-24T16:26:19;20.50;49.10
44863;DHT22;30597;49.628;10.850;2023-02-24T16:31:16;20.70;49.40
44863;DHT22;30597;49.628;10.850;2023-02-24T16:33:42;20.80;49.30
44863;DHT22;30597;49.628;10.850;2023-02-24T16:36:17;20.90;49.20
44863;DHT22;30597;49.628;10.850;2023-02-24T16:38:43;21.00;49.10
44863;DHT22;30597;49.628;10.850;2023-02-24T16:41:11;21.10;48.90
44863;DHT22;30597;49.628;10.850;2023-02-24T16:43:37;21.10;48.90
44863;DHT22;30597;49.628;10.850;2023-02-24T16:46:05;21.20;48.80
44863;DHT22;30597;49.628;10.850;2023-02-24T16:48:32;21.20;48.70
44863;DHT22;30597;49.628;10.850;2023-02-24T16:51:05;21.30;48.80
44863;DHT22;30597;49.628;10.850;2023-02-24T16:53:30;21.40;48.70
44863;DHT22;30597;49.628;10.850;2023-02-24T16:55:56;21.30;48.50
44863;DHT22;30597;49.628;10.850;2023-02-24T16:58:22;21.40;48.60
44863;DHT22;30597;49.628;10.850;2023-02-24T17:00:49;21.40;48.50
44863;DHT22;30597;49.628;10.850;2023-02-24T17:05:49;21.40;48.50
44863;DHT22;30597;49.628;10.850;2023-02-24T17:08:15;21.40;48.50
44863;DHT22;30597;49.628;10.850;2023-02-24T17:10:42;21.30;48.50
44863;DHT22;30597;49.628;10.850;2023-02-24T17:13:17;21.30;48.60
44863;DHT22;30597;49.628;10.850;2023-02-24T17:15:43;21.30;48.70
44863;DHT22;30597;49.628;10.850;2023-02-24T17:18:09;21.30;48.70
44863;DHT22;30597;49.628;10.850;2023-02-24T17:20:36;21.20;48.70
44863;DHT22;30597;49.628;10.850;2023-02-24T17:23:02;21.10;48.70
44863;DHT22;30597;49.628;10.850;2023-02-24T17:25:28;21.10;48.80
44863;DHT22;30597;49.628;10.850;2023-02-24T17:27:55;21.00;48.60
44863;DHT22;30597;49.628;10.850;2023-02-24T17:30:23;21.00;48.90
44863;DHT22;30597;49.628;10.850;2023-02-24T17:32:49;21.00;49.00
44863;DHT22;30597;49.628;10.850;2023-02-24T17:35:15;21.00;49.00
44863;DHT22;30597;49.628;10.850;2023-02-24T17:37:41;20.90;49.00
44863;DHT22;30597;49.628;10.850;2023-02-24T17:40:07;20.90;49.10
44863;DHT22;30597;49.628;10.850;2023-02-24T17:42:33;20.80;49.20
44863;DHT22;30597;49.628;10.850;2023-02-24T17:44:58;20.70;49.30
44863;DHT22;30597;49.628;10.850;2023-02-24T17:47:24;20.70;49.40